Time;durP1;ratioP1;P1;durP2;ratioP2;P2;SDS_P1;SDS_P2;PMS_P1;PMS_P2;Temp;Humidity;BMP_temperature;BMP_pressure;BME280_temperature;BME280_humidity;BME280_pressure;Samples;Min_cycle;Max_cycle;Signal;HPM_P1;HPM_P2
2023/06/11 00:01:14;;;;;;;9.82;8.68;;;;;;;;;;5018958;28;20209;-70
2023/06/11 00:03:42;;;;;;;10.77;9.10;;;;;;;;;;5024867;28;20186;-70
2023/06/11 00:06:10;;;;;;;11.70;9.35;;;;;;;;;;5028923;28;20210;-69
2023/06/11 00:08:36;;;;;;;13.50;9.43;;;;;;;;;;5012447;28;20229;-69
2023/06/11 00:11:01;;;;;;;11.40;9.55;;;;;;;;;;5009789;28;20222;-70
2023/06/11 00:13:28;;;;;;;11.80;9.00;;;;;;;;;;5011279;28;20198;-71
2023/06/11 00:15:54;;;;;;;10.95;9.30;;;;;;;;;;5026908;28;20422;-71
2023/06/11 00:18:19;;;;;;;11.90;9.27;;;;;;;;;;5022336;28;20301;-71
2023/06/11 00:20:46;;;;;;;11.23;9.02;;;;;;;;;;5011371;28;20195;-71
2023/06/11 00:23:11;;;;;;;12.77;9.18;;;;;;;;;;5027763;28;20627;-70
2023/06/11 00:25:37;;;;;;;15.73;9.35;;;;;;;;;;5024992;28;20337;-69
2023/06/11 00:28:02;;;;;;;10.68;9.57;;;;;;;;;;5022347;28;20217;-69
2023/06/11 00:30:29;;;;;;;12.75;9.40;;;;;;;;;;5021452;28;20270;-69
2023/06/11 00:32:55;;;;;;;11.63;8.82;;;;;;;;;;5026348;28;20225;-69
2023/06/11 00:35:20;;;;;;;12.68;9.32;;;;;;;;;;5025428;28;20206;-69
2023/06/11 00:37:47;;;;;;;9.95;8.50;;;;;;;;;;5024087;28;20269;-70
2023/06/11 00:40:12;;;;;;;12.52;9.57;;;;;;;;;;5027765;28;20271;-70
2023/06/11 00:42:40;;;;;;;12.45;9.40;;;;;;;;;;5035099;28;20198;-70
2023/06/11 00:45:06;;;;;;;12.88;9.77;;;;;;;;;;5028228;28;20297;-70
2023/06/11 00:47:32;;;;;;;13.90;10.00;;;;;;;;;;5023716;28;20658;-70
2023/06/11 00:49:59;;;;;;;14.60;9.85;;;;;;;;;;5010514;28;20258;-69
2023/06/11 00:52:25;;;;;;;19.50;10.90;;;;;;;;;;5014217;28;20228;-69
2023/06/11 00:54:52;;;;;;;11.77;9.57;;;;;;;;;;5020674;28;20215;-69
2023/06/11 00:57:22;;;;;;;12.60;9.63;;;;;;;;;;5021726;28;20692;-69
2023/06/11 00:59:50;;;;;;;11.30;10.07;;;;;;;;;;5019929;28;20189;-69
2023/06/11 01:02:38;;;;;;;12.52;9.90;;;;;;;;;;5017805;28;20669;-70
2023/06/11 01:05:06;;;;;;;12.10;9.98;;;;;;;;;;5032870;28;20216;-70
2023/06/11 01:07:35;;;;;;;11.00;9.75;;;;;;;;;;5023172;28;20731;-70
2023/06/11 01:10:02;;;;;;;12.05;10.02;;;;;;;;;;5027874;28;20190;-70
2023/06/11 01:12:27;;;;;;;14.70;10.07;;;;;;;;;;5024250;28;20257;-70
2023/06/11 01:14:53;;;;;;;10.98;9.77;;;;;;;;;;5026209;28;20186;-70
2023/06/11 01:17:25;;;;;;;13.00;10.07;;;;;;;;;;5027650;28;20303;-70
2023/06/11 01:20:11;;;;;;;13.88;9.50;;;;;;;;;;5026514;28;20297;-70
2023/06/11 01:23:04;;;;;;;12.50;9.50;;;;;;;;;;5013540;28;20263;-70
2023/06/11 01:26:07;;;;;;;11.98;10.50;;;;;;;;;;5027808;28;20654;-70
2023/06/11 01:28:35;;;;;;;14.77;10.18;;;;;;;;;;5032521;28;20682;-70
2023/06/11 01:31:08;;;;;;;12.50;9.80;;;;;;;;;;5026931;28;20190;-70
2023/06/11 01:33:35;;;;;;;11.35;10.15;;;;;;;;;;5023361;28;20189;-70
2023/06/11 01:36:01;;;;;;;15.32;10.10;;;;;;;;;;5026043;28;20633;-69
2023/06/11 01:38:30;;;;;;;13.05;10.38;;;;;;;;;;5042354;28;20235;-70
2023/06/11 01:40:58;;;;;;;11.13;9.73;;;;;;;;;;5035486;28;20360;-69
2023/06/11 01:43:24;;;;;;;13.95;9.65;;;;;;;;;;5025000;28;20239;-69
2023/06/11 01:45:50;;;;;;;11.48;10.23;;;;;;;;;;5027688;28;20205;-69
2023/06/11 01:48:15;;;;;;;11.93;10.50;;;;;;;;;;5022776;28;20190;-69
2023/06/11 01:50:40;;;;;;;15.05;10.10;;;;;;;;;;5007615;28;20337;-70
2023/06/11 01:53:06;;;;;;;13.77;10.23;;;;;;;;;;5014576;28;20194;-71
2023/06/11 01:55:31;;;;;;;12.13;10.82;;;;;;;;;;5029345;28;20190;-70
2023/06/11 01:57:57;;;;;;;13.15;9.95;;;;;;;;;;5024309;28;20267;-70
2023/06/11 02:00:22;;;;;;;13.02;10.63;;;;;;;;;;5027257;28;20241;-70
2023/06/11 02:02:48;;;;;;;12.93;10.80;;;;;;;;;;5013124;28;20264;-70
2023/06/11 02:05:13;;;;;;;14.15;10.82;;;;;;;;;;5027580;28;20655;-70
2023/06/11 02:07:39;;;;;;;13.52;10.77;;;;;;;;;;5014859;28;20187;-70
2023/06/11 02:10:05;;;;;;;11.55;10.07;;;;;;;;;;5020064;28;20195;-70
2023/06/11 02:12:30;;;;;;;11.57;10.18;;;;;;;;;;5013570;28;20202;-70
2023/06/11 02:14:56;;;;;;;12.82;10.48;;;;;;;;;;5026002;28;20311;-70
2023/06/11 02:17:21;;;;;;;13.90;10.40;;;;;;;;;;5027519;28;20202;-70
2023/06/11 02:19:47;;;;;;;14.82;10.13;;;;;;;;;;5027161;28;20194;-71
2023/06/11 02:22:13;;;;;;;11.68;9.63;;;;;;;;;;5011133;28;20187;-70
2023/06/11 02:24:38;;;;;;;17.48;10.82;;;;;;;;;;5024385;28;20305;-70
2023/06/11 02:27:04;;;;;;;12.45;11.23;;;;;;;;;;5028676;28;20266;-70
2023/06/11 02:29:29;;;;;;;13.45;10.40;;;;;;;;;;5030351;28;20205;-70
2023/06/11 02:31:54;;;;;;;11.98;10.65;;;;;;;;;;5030417;28;20197;-70
2023/06/11 02:34:20;;;;;;;12.68;11.23;;;;;;;;;;5027990;28;20661;-71
2023/06/11 02:36:45;;;;;;;15.13;11.07;;;;;;;;;;5034775;28;20197;-70
2023/06/11 02:39:10;;;;;;;14.55;10.60;;;;;;;;;;5035603;28;20272;-70
2023/06/11 02:41:36;;;;;;;14.05;11.05;;;;;;;;;;5036612;28;20895;-70
2023/06/11 02:44:01;;;;;;;14.50;10.88;;;;;;;;;;5031288;28;20277;-70
2023/06/11 02:46:26;;;;;;;13.98;11.65;;;;;;;;;;5019642;28;20214;-71
2023/06/11 02:48:52;;;;;;;13.10;10.82;;;;;;;;;;5017848;28;20191;-71
2023/06/11 02:51:17;;;;;;;18.05;11.00;;;;;;;;;;5029432;28;20202;-71
2023/06/11 02:53:44;;;;;;;13.70;11.57;;;;;;;;;;5029198;28;20316;-70
2023/06/11 02:56:09;;;;;;;15.60;11.68;;;;;;;;;;5025878;28;20182;-71
2023/06/11 02:58:34;;;;;;;14.07;11.38;;;;;;;;;;5025833;28;20216;-71
2023/06/11 03:01:00;;;;;;;12.63;11.20;;;;;;;;;;5019698;28;20225;-71
2023/06/11 03:03:25;;;;;;;12.88;10.77;;;;;;;;;;5028571;28;20216;-71
2023/06/11 03:05:51;;;;;;;14.15;11.48;;;;;;;;;;5023177;28;20686;-70
2023/06/11 03:08:16;;;;;;;11.93;10.73;;;;;;;;;;5029050;28;20194;-70
2023/06/11 03:10:42;;;;;;;14.40;11.35;;;;;;;;;;5024214;28;20637;-70
2023/06/11 03:13:07;;;;;;;15.80;11.82;;;;;;;;;;5019924;28;20280;-71
2023/06/11 03:15:33;;;;;;;13.25;11.70;;;;;;;;;;5027124;28;20244;-70
2023/06/11 03:17:58;;;;;;;13.70;11.52;;;;;;;;;;5025237;28;20202;-70
2023/06/11 03:20:24;;;;;;;18.25;12.38;;;;;;;;;;5027696;28;20212;-71
2023/06/11 03:22:50;;;;;;;14.75;12.15;;;;;;;;;;5023806;28;20190;-71
2023/06/11 03:25:15;;;;;;;14.57;12.07;;;;;;;;;;5019170;28;20565;-71
2023/06/11 03:27:41;;;;;;;12.93;11.48;;;;;;;;;;5013980;28;20197;-71
2023/06/11 03:30:07;;;;;;;12.85;11.55;;;;;;;;;;5025286;28;20217;-71
2023/06/11 03:32:32;;;;;;;12.27;10.93;;;;;;;;;;5026096;28;20193;-71
2023/06/11 03:34:58;;;;;;;14.13;11.45;;;;;;;;;;5023344;28;20298;-71
2023/06/11 03:37:23;;;;;;;13.77;11.48;;;;;;;;;;5022547;28;20203;-71
2023/06/11 03:39:48;;;;;;;16.42;12.15;;;;;;;;;;5024498;28;20580;-71
2023/06/11 03:42:14;;;;;;;16.40;11.45;;;;;;;;;;5027050;28;20313;-71
2023/06/11 03:44:39;;;;;;;15.70;12.18;;;;;;;;;;5021754;28;20215;-71
2023/06/11 03:47:05;;;;;;;13.45;11.00;;;;;;;;;;5021969;28;20222;-71
2023/06/11 03:49:30;;;;;;;12.73;11.20;;;;;;;;;;5021968;28;20274;-71
2023/06/11 03:51:56;;;;;;;15.63;11.38;;;;;;;;;;5025005;28;20425;-71
2023/06/11 03:54:21;;;;;;;13.25;11.70;;;;;;;;;;5027453;28;20198;-71
2023/06/11 03:56:47;;;;;;;12.35;11.13;;;;;;;;;;5024444;28;20190;-71
2023/06/11 03:59:12;;;;;;;13.63;10.45;;;;;;;;;;5028703;28;20197;-71
2023/06/11 04:01:38;;;;;;;15.15;11.02;;;;;;;;;;5022526;28;20764;-71
2023/06/11 04:04:03;;;;;;;15.25;11.40;;;;;;;;;;5029798;28;20653;-71
2023/06/11 04:06:29;;;;;;;13.65;11.23;;;;;;;;;;5013401;28;20202;-71
2023/06/11 04:08:54;;;;;;;18.23;11.15;;;;;;;;;;5018566;28;20205;-71
2023/06/11 04:11:20;;;;;;;13.70;11.90;;;;;;;;;;5026972;28;20255;-72
2023/06/11 04:13:50;;;;;;;13.40;11.15;;;;;;;;;;5026030;28;20262;-71
2023/06/11 04:16:18;;;;;;;13.45;12.05;;;;;;;;;;5028347;28;20267;-71
2023/06/11 04:18:44;;;;;;;14.70;11.35;;;;;;;;;;5017866;28;20197;-71
2023/06/11 04:21:09;;;;;;;14.73;11.40;;;;;;;;;;5020163;28;20201;-71
2023/06/11 04:23:35;;;;;;;15.13;11.60;;;;;;;;;;5027638;28;20194;-71
2023/06/11 04:26:01;;;;;;;14.40;11.23;;;;;;;;;;5026428;28;20222;-71
2023/06/11 04:28:27;;;;;;;15.88;11.48;;;;;;;;;;5027559;28;20217;-71
2023/06/11 04:30:57;;;;;;;15.43;11.20;;;;;;;;;;5021609;28;20565;-71
2023/06/11 04:33:24;;;;;;;14.73;11.05;;;;;;;;;;5025105;28;20196;-71
2023/06/11 04:35:50;;;;;;;12.57;11.27;;;;;;;;;;5031154;28;20273;-71
2023/06/11 04:38:15;;;;;;;11.57;10.38;;;;;;;;;;5048530;28;20610;-71
2023/06/11 04:40:41;;;;;;;11.13;9.98;;;;;;;;;;5029143;28;20241;-72
2023/06/11 04:43:07;;;;;;;12.90;9.77;;;;;;;;;;5029803;28;20186;-70
2023/06/11 04:45:33;;;;;;;11.48;10.13;;;;;;;;;;5026710;28;20227;-70
2023/06/11 04:48:03;;;;;;;12.80;10.25;;;;;;;;;;5023415;28;20748;-70
2023/06/11 04:50:31;;;;;;;12.65;10.15;;;;;;;;;;5022049;28;20516;-70
2023/06/11 04:52:57;;;;;;;16.77;10.55;;;;;;;;;;5027442;28;20580;-70
2023/06/11 04:55:24;;;;;;;13.43;10.90;;;;;;;;;;5028376;28;20182;-70
2023/06/11 04:57:50;;;;;;;12.02;10.45;;;;;;;;;;5028548;28;20193;-70
2023/06/11 05:00:15;;;;;;;12.82;9.55;;;;;;;;;;5028558;28;20185;-70
2023/06/11 05:02:44;;;;;;;11.30;10.20;;;;;;;;;;5023446;28;20595;-70
2023/06/11 05:05:10;;;;;;;12.88;10.18;;;;;;;;;;5013958;28;20221;-70
2023/06/11 05:07:35;;;;;;;10.80;9.60;;;;;;;;;;5026546;28;20216;-70
2023/06/11 05:10:01;;;;;;;11.43;9.85;;;;;;;;;;5012725;28;20248;-71
2023/06/11 05:12:26;;;;;;;12.52;10.00;;;;;;;;;;5026237;28;20182;-70
2023/06/11 05:14:52;;;;;;;15.70;9.98;;;;;;;;;;5025446;28;20235;-70
2023/06/11 05:17:17;;;;;;;11.13;9.85;;;;;;;;;;5030322;28;20501;-70
2023/06/11 05:19:43;;;;;;;13.40;10.40;;;;;;;;;;5029601;28;20190;-71
2023/06/11 05:22:08;;;;;;;12.43;9.70;;;;;;;;;;5016992;28;20233;-71
2023/06/11 05:24:34;;;;;;;11.32;10.23;;;;;;;;;;5025778;28;20351;-70
2023/06/11 05:27:00;;;;;;;12.30;9.75;;;;;;;;;;5020436;28;20518;-71
2023/06/11 05:29:26;;;;;;;10.52;9.15;;;;;;;;;;5020991;28;20274;-71
2023/06/11 05:31:51;;;;;;;14.75;9.40;;;;;;;;;;5022780;28;20343;-71
2023/06/11 05:34:17;;;;;;;10.63;8.88;;;;;;;;;;5022175;28;20198;-71
2023/06/11 05:36:45;;;;;;;10.65;9.35;;;;;;;;;;5017119;28;20625;-71
2023/06/11 05:39:13;;;;;;;10.45;9.35;;;;;;;;;;5014192;28;20256;-71
2023/06/11 05:41:39;;;;;;;11.20;8.85;;;;;;;;;;5027829;28;20263;-71
2023/06/11 05:44:05;;;;;;;9.63;8.25;;;;;;;;;;5027346;28;20197;-70
2023/06/11 05:46:31;;;;;;;10.05;7.88;;;;;;;;;;5015491;28;20297;-71
2023/06/11 05:48:57;;;;;;;9.48;8.48;;;;;;;;;;5019086;28;20323;-71
2023/06/11 05:51:22;;;;;;;12.13;8.63;;;;;;;;;;5025409;28;20193;-70
2023/06/11 05:53:48;;;;;;;9.75;8.57;;;;;;;;;;5030753;28;20202;-70
2023/06/11 05:56:13;;;;;;;9.80;7.82;;;;;;;;;;5016959;28;20236;-71
2023/06/11 05:58:39;;;;;;;10.50;8.45;;;;;;;;;;5019305;28;20558;-71
2023/06/11 06:01:05;;;;;;;9.52;8.52;;;;;;;;;;5019900;28;20253;-72
2023/06/11 06:03:31;;;;;;;12.52;8.75;;;;;;;;;;5027341;28;20314;-72
2023/06/11 06:05:58;;;;;;;10.18;8.15;;;;;;;;;;5030173;28;20254;-71
2023/06/11 06:08:25;;;;;;;13.23;7.88;;;;;;;;;;5029740;28;20225;-71
2023/06/11 06:10:50;;;;;;;8.88;7.97;;;;;;;;;;5025840;28;20508;-71
2023/06/11 06:13:15;;;;;;;9.40;8.32;;;;;;;;;;5027016;28;20193;-71
2023/06/11 06:15:41;;;;;;;9.85;8.02;;;;;;;;;;5030800;28;20257;-71
2023/06/11 06:18:07;;;;;;;9.85;8.30;;;;;;;;;;5025113;28;20221;-71
2023/06/11 06:20:32;;;;;;;9.60;8.60;;;;;;;;;;5027801;28;20471;-71
2023/06/11 06:22:57;;;;;;;10.80;8.32;;;;;;;;;;5023549;28;20195;-71
2023/06/11 06:25:24;;;;;;;11.70;8.98;;;;;;;;;;5021154;28;20293;-71
2023/06/11 06:27:50;;;;;;;9.38;8.35;;;;;;;;;;5020391;28;20248;-72
2023/06/11 06:30:15;;;;;;;9.55;8.55;;;;;;;;;;5024572;28;20286;-71
2023/06/11 06:32:41;;;;;;;10.23;7.95;;;;;;;;;;5039817;28;20186;-70
2023/06/11 06:35:08;;;;;;;10.68;8.40;;;;;;;;;;5024141;28;20186;-70
2023/06/11 06:37:33;;;;;;;8.70;7.82;;;;;;;;;;5024080;28;20201;-70
2023/06/11 06:39:59;;;;;;;8.73;7.82;;;;;;;;;;5025819;28;20229;-71
2023/06/11 06:42:24;;;;;;;11.90;8.52;;;;;;;;;;5039118;28;20255;-71
2023/06/11 06:44:49;;;;;;;9.07;7.95;;;;;;;;;;5029673;28;20530;-71
2023/06/11 06:47:15;;;;;;;8.80;8.00;;;;;;;;;;5039202;28;20233;-70
2023/06/11 06:49:40;;;;;;;12.43;7.97;;;;;;;;;;5025317;28;21445;-70
2023/06/11 06:52:06;;;;;;;8.60;7.65;;;;;;;;;;5019147;28;20701;-71
2023/06/11 06:54:32;;;;;;;9.32;7.93;;;;;;;;;;5036495;28;20197;-70
2023/06/11 06:56:57;;;;;;;10.80;7.68;;;;;;;;;;5038916;28;20190;-70
2023/06/11 06:59:22;;;;;;;10.25;8.30;;;;;;;;;;5024956;28;20277;-71
2023/06/11 07:01:48;;;;;;;10.35;7.55;;;;;;;;;;5023090;28;20255;-71
2023/06/11 07:04:13;;;;;;;8.18;7.28;;;;;;;;;;5032812;28;20181;-71
2023/06/11 07:06:39;;;;;;;12.57;7.43;;;;;;;;;;5025587;28;20213;-70
2023/06/11 07:09:04;;;;;;;8.40;7.40;;;;;;;;;;5025794;28;20561;-70
2023/06/11 07:11:29;;;;;;;9.95;7.30;;;;;;;;;;5025133;28;20745;-71
2023/06/11 07:13:55;;;;;;;10.60;7.80;;;;;;;;;;5028751;28;20316;-70
2023/06/11 07:16:21;;;;;;;9.45;6.95;;;;;;;;;;5022393;28;20197;-70
2023/06/11 07:18:46;;;;;;;8.38;7.20;;;;;;;;;;5022681;28;20190;-71
2023/06/11 07:21:12;;;;;;;13.15;7.63;;;;;;;;;;5026646;28;20248;-71
2023/06/11 07:23:38;;;;;;;10.20;7.50;;;;;;;;;;5024182;28;20248;-70
2023/06/11 07:26:05;;;;;;;8.75;7.63;;;;;;;;;;5028775;28;20685;-70
2023/06/11 07:28:30;;;;;;;9.63;7.10;;;;;;;;;;5026068;28;20321;-70
2023/06/11 07:30:56;;;;;;;8.35;7.43;;;;;;;;;;5026864;28;20289;-70
2023/06/11 07:33:21;;;;;;;8.23;7.25;;;;;;;;;;5032565;28;20324;-70
2023/06/11 07:35:49;;;;;;;9.10;7.57;;;;;;;;;;5026907;28;20424;-71
2023/06/11 07:38:15;;;;;;;8.80;7.63;;;;;;;;;;5025503;28;20521;-71
2023/06/11 07:40:40;;;;;;;8.07;7.28;;;;;;;;;;5026028;28;20230;-71
2023/06/11 07:43:06;;;;;;;12.40;7.40;;;;;;;;;;5032110;28;20200;-71
2023/06/11 07:45:31;;;;;;;8.38;7.45;;;;;;;;;;5022987;28;20210;-70
2023/06/11 07:47:56;;;;;;;10.65;7.70;;;;;;;;;;5024275;28;20557;-71
2023/06/11 07:50:22;;;;;;;9.20;6.85;;;;;;;;;;5037329;28;20363;-70
2023/06/11 07:52:47;;;;;;;7.72;6.93;;;;;;;;;;5024255;28;20501;-71
2023/06/11 07:55:13;;;;;;;8.05;7.35;;;;;;;;;;5019828;28;20332;-73
2023/06/11 07:57:38;;;;;;;8.70;7.07;;;;;;;;;;5027038;28;20194;-71
2023/06/11 08:00:10;;;;;;;9.18;7.22;;;;;;;;;;5026423;28;20194;-71
2023/06/11 08:02:35;;;;;;;8.80;6.75;;;;;;;;;;5024422;28;20209;-72
2023/06/11 08:05:01;;;;;;;8.90;6.53;;;;;;;;;;5023150;28;20713;-71
2023/06/11 08:07:26;;;;;;;8.70;6.97;;;;;;;;;;5028732;28;20193;-71
2023/06/11 08:09:52;;;;;;;6.97;6.25;;;;;;;;;;5028016;28;20204;-70
2023/06/11 08:12:17;;;;;;;9.68;7.35;;;;;;;;;;5019497;28;20273;-70
2023/06/11 08:14:43;;;;;;;8.73;6.97;;;;;;;;;;5020499;28;20553;-71
2023/06/11 08:17:08;;;;;;;7.65;6.88;;;;;;;;;;5014306;28;20190;-71
2023/06/11 08:19:34;;;;;;;9.77;7.18;;;;;;;;;;5025958;28;20264;-70
2023/06/11 08:22:01;;;;;;;8.50;6.75;;;;;;;;;;5028816;28;20191;-70
2023/06/11 08:24:26;;;;;;;12.77;6.82;;;;;;;;;;5020867;28;20217;-69
2023/06/11 08:26:52;;;;;;;7.55;6.85;;;;;;;;;;5028288;28;20186;-70
2023/06/11 08:29:17;;;;;;;7.43;6.38;;;;;;;;;;5030802;28;20190;-70
2023/06/11 08:31:43;;;;;;;9.35;6.68;;;;;;;;;;5023532;28;20298;-70
2023/06/11 08:34:09;;;;;;;8.88;7.25;;;;;;;;;;5018962;28;20186;-70
2023/06/11 08:36:35;;;;;;;8.25;7.45;;;;;;;;;;5023438;28;20605;-70
2023/06/11 08:39:01;;;;;;;7.88;6.82;;;;;;;;;;5025411;28;20327;-71
2023/06/11 08:41:29;;;;;;;8.80;6.30;;;;;;;;;;5025971;28;20234;-70
2023/06/11 08:43:56;;;;;;;7.90;7.10;;;;;;;;;;5028876;28;20194;-69
2023/06/11 08:46:23;;;;;;;8.98;6.90;;;;;;;;;;5023100;28;20207;-70
2023/06/11 08:49:04;;;;;;;7.80;6.68;;;;;;;;;;5021649;28;20277;-69
2023/06/11 08:51:35;;;;;;;7.60;6.63;;;;;;;;;;5010049;28;20289;-70
2023/06/11 08:54:00;;;;;;;7.28;6.47;;;;;;;;;;5024570;28;20233;-70
2023/06/11 08:56:26;;;;;;;7.65;6.28;;;;;;;;;;5016847;28;20707;-69
2023/06/11 08:58:53;;;;;;;7.35;6.65;;;;;;;;;;5020172;28;20186;-70
2023/06/11 09:01:21;;;;;;;8.20;6.93;;;;;;;;;;5020680;28;20301;-69
2023/06/11 09:03:46;;;;;;;9.45;6.75;;;;;;;;;;5017606;28;20264;-70
2023/06/11 09:06:11;;;;;;;7.32;6.07;;;;;;;;;;5022160;28;20214;-69
2023/06/11 09:08:37;;;;;;;7.70;6.88;;;;;;;;;;5015882;28;20192;-69
2023/06/11 09:11:04;;;;;;;9.05;7.00;;;;;;;;;;5025329;28;20606;-69
2023/06/11 09:13:29;;;;;;;8.85;7.00;;;;;;;;;;5025012;28;20210;-70
2023/06/11 09:15:55;;;;;;;8.73;6.60;;;;;;;;;;5021157;28;20277;-69
2023/06/11 09:18:23;;;;;;;8.15;6.53;;;;;;;;;;5013899;28;20278;-69
2023/06/11 09:20:53;;;;;;;7.80;6.20;;;;;;;;;;5023428;28;20669;-70
2023/06/11 09:23:26;;;;;;;7.70;6.35;;;;;;;;;;5026367;28;20424;-69
2023/06/11 09:25:52;;;;;;;7.32;6.13;;;;;;;;;;5025682;28;20570;-68
2023/06/11 09:28:17;;;;;;;6.80;6.20;;;;;;;;;;5027079;28;20196;-70
2023/06/11 09:30:55;;;;;;;8.77;6.28;;;;;;;;;;5019906;28;20255;-68
2023/06/11 09:33:20;;;;;;;8.13;5.85;;;;;;;;;;5018559;28;20665;-70
2023/06/11 09:35:46;;;;;;;6.68;5.97;;;;;;;;;;5014073;28;20186;-72
2023/06/11 09:38:20;;;;;;;7.03;6.07;;;;;;;;;;5020438;28;20195;-71
2023/06/11 09:40:46;;;;;;;8.30;5.72;;;;;;;;;;5022966;28;20240;-71
2023/06/11 09:43:13;;;;;;;7.00;5.70;;;;;;;;;;5019884;28;20194;-71
2023/06/11 09:45:39;;;;;;;6.50;5.82;;;;;;;;;;5007744;28;20203;-70
2023/06/11 09:48:05;;;;;;;7.82;6.20;;;;;;;;;;5026581;28;20547;-71
2023/06/11 09:50:33;;;;;;;6.63;6.00;;;;;;;;;;5024576;28;20202;-71
2023/06/11 09:53:02;;;;;;;7.38;5.97;;;;;;;;;;5017317;28;20562;-70
2023/06/11 09:55:30;;;;;;;7.20;6.50;;;;;;;;;;5026663;28;20209;-69
2023/06/11 09:57:56;;;;;;;6.68;5.90;;;;;;;;;;5025773;28;20194;-70
2023/06/11 10:00:22;;;;;;;7.68;6.03;;;;;;;;;;5026872;28;20221;-69
2023/06/11 10:02:47;;;;;;;9.63;6.45;;;;;;;;;;5020311;28;20195;-70
2023/06/11 10:05:14;;;;;;;7.45;6.50;;;;;;;;;;5007946;28;20206;-70
2023/06/11 10:08:02;;;;;;;6.22;5.63;;;;;;;;;;5024228;28;20498;-70
2023/06/11 10:10:30;;;;;;;10.68;5.80;;;;;;;;;;5017070;28;20256;-70
2023/06/11 10:12:55;;;;;;;8.20;6.15;;;;;;;;;;5020131;28;20198;-69
2023/06/11 10:15:23;;;;;;;8.50;5.82;;;;;;;;;;5026941;28;20186;-71
2023/06/11 10:17:50;;;;;;;9.07;6.35;;;;;;;;;;5027139;28;20227;-71
2023/06/11 10:20:35;;;;;;;6.47;5.88;;;;;;;;;;5025159;28;20210;-70
2023/06/11 10:23:11;;;;;;;7.38;5.82;;;;;;;;;;5028925;28;20323;-70
2023/06/11 10:25:40;;;;;;;6.35;5.75;;;;;;;;;;5009948;28;20529;-70
2023/06/11 10:28:06;;;;;;;6.03;5.45;;;;;;;;;;5017981;28;20183;-72
2023/06/11 10:30:32;;;;;;;9.40;5.78;;;;;;;;;;5025270;28;20196;-71
2023/06/11 10:32:58;;;;;;;8.65;5.93;;;;;;;;;;5019180;28;20199;-72
2023/06/11 10:35:28;;;;;;;6.07;5.57;;;;;;;;;;5014265;28;20639;-73
2023/06/11 10:38:10;;;;;;;10.68;5.90;;;;;;;;;;5020197;28;20265;-70
2023/06/11 10:40:38;;;;;;;7.85;5.60;;;;;;;;;;5021122;28;20291;-72
2023/06/11 10:43:15;;;;;;;7.72;5.68;;;;;;;;;;5018345;28;20198;-69
2023/06/11 10:45:41;;;;;;;8.80;6.13;;;;;;;;;;5025342;28;20212;-70
2023/06/11 10:48:06;;;;;;;11.25;6.22;;;;;;;;;;5025955;28;20201;-71
2023/06/11 10:50:33;;;;;;;7.60;5.82;;;;;;;;;;5027247;28;20221;-72
2023/06/11 10:53:05;;;;;;;6.65;5.88;;;;;;;;;;5023371;28;20202;-71
2023/06/11 10:55:32;;;;;;;8.63;6.13;;;;;;;;;;5042691;28;20182;-70
2023/06/11 10:57:59;;;;;;;9.13;5.10;;;;;;;;;;5026827;28;20518;-71
2023/06/11 11:00:28;;;;;;;6.38;5.80;;;;;;;;;;5027470;28;20213;-70
2023/06/11 11:02:56;;;;;;;7.60;5.47;;;;;;;;;;5028325;28;20213;-70
2023/06/11 11:05:22;;;;;;;8.15;5.47;;;;;;;;;;5027040;28;20689;-70
2023/06/11 11:07:47;;;;;;;7.15;5.43;;;;;;;;;;5030524;28;20193;-70
2023/06/11 11:10:19;;;;;;;11.27;7.13;;;;;;;;;;5029885;28;20209;-72
2023/06/11 11:12:46;;;;;;;7.13;6.20;;;;;;;;;;5021996;28;20245;-69
2023/06/11 11:15:12;;;;;;;7.55;5.38;;;;;;;;;;5035579;28;20178;-70
2023/06/11 11:17:43;;;;;;;8.27;7.25;;;;;;;;;;5017228;28;20277;-72
2023/06/11 11:20:09;;;;;;;9.30;6.30;;;;;;;;;;5026727;28;20194;-70
2023/06/11 11:22:35;;;;;;;8.57;5.60;;;;;;;;;;5020882;28;20678;-70
2023/06/11 11:25:02;;;;;;;9.32;5.75;;;;;;;;;;5040081;28;20254;-71
2023/06/11 11:27:28;;;;;;;11.27;5.97;;;;;;;;;;5025197;28;20281;-70
2023/06/11 11:29:56;;;;;;;7.70;5.95;;;;;;;;;;5029262;28;20289;-69
2023/06/11 11:32:25;;;;;;;7.55;5.88;;;;;;;;;;5036598;28;20185;-71
2023/06/11 11:34:50;;;;;;;6.38;5.78;;;;;;;;;;5032392;28;20190;-70
2023/06/11 11:37:16;;;;;;;7.63;5.60;;;;;;;;;;5024965;28;20201;-71
2023/06/11 11:39:41;;;;;;;8.73;5.63;;;;;;;;;;5029355;28;20204;-72
2023/06/11 11:42:09;;;;;;;8.85;6.18;;;;;;;;;;5026798;28;20209;-70
2023/06/11 11:44:42;;;;;;;10.15;5.97;;;;;;;;;;5017350;28;20189;-69
2023/06/11 11:47:09;;;;;;;6.90;6.30;;;;;;;;;;5040429;28;20607;-70
2023/06/11 11:49:34;;;;;;;7.75;5.32;;;;;;;;;;5027493;28;20192;-70
2023/06/11 11:52:00;;;;;;;7.40;5.85;;;;;;;;;;5025267;28;20190;-68
2023/06/11 11:54:27;;;;;;;7.78;6.07;;;;;;;;;;5031631;28;20213;-70
2023/06/11 11:57:07;;;;;;;8.73;6.15;;;;;;;;;;5028140;28;20181;-69
2023/06/11 11:59:39;;;;;;;6.63;5.93;;;;;;;;;;5010663;28;20291;-68
2023/06/11 12:02:06;;;;;;;9.57;5.60;;;;;;;;;;5014915;28;20237;-69
2023/06/11 12:04:42;;;;;;;9.50;5.55;;;;;;;;;;5026281;28;20205;-69
2023/06/11 12:07:12;;;;;;;7.32;6.18;;;;;;;;;;5026101;28;20632;-70
2023/06/11 12:09:39;;;;;;;9.00;5.50;;;;;;;;;;5012187;28;20266;-69
2023/06/11 12:12:06;;;;;;;7.07;6.28;;;;;;;;;;5010741;28;20194;-70
2023/06/11 12:14:33;;;;;;;10.07;6.00;;;;;;;;;;5012792;28;20182;-70
2023/06/11 12:16:58;;;;;;;6.60;6.00;;;;;;;;;;5016886;28;20425;-69
2023/06/11 12:19:23;;;;;;;6.97;5.97;;;;;;;;;;5017111;28;20179;-69
2023/06/11 12:21:49;;;;;;;9.88;6.00;;;;;;;;;;5009321;28;20190;-70
2023/06/11 12:24:15;;;;;;;8.25;6.10;;;;;;;;;;5038278;28;20630;-70
2023/06/11 12:26:50;;;;;;;9.68;6.28;;;;;;;;;;5026948;28;20732;-71
2023/06/11 12:29:16;;;;;;;8.68;6.38;;;;;;;;;;5028313;28;20276;-71
2023/06/11 12:31:42;;;;;;;9.32;6.72;;;;;;;;;;5022885;28;20186;-70
2023/06/11 12:34:10;;;;;;;11.88;6.10;;;;;;;;;;5011809;28;20238;-69
2023/06/11 12:36:36;;;;;;;7.00;6.20;;;;;;;;;;5010669;28;20615;-71
2023/06/11 12:39:03;;;;;;;6.82;6.15;;;;;;;;;;5029979;28;20197;-70
2023/06/11 12:41:28;;;;;;;8.27;6.13;;;;;;;;;;5021728;28;20673;-72
2023/06/11 12:43:54;;;;;;;7.35;6.22;;;;;;;;;;5018078;28;20182;-71
2023/06/11 12:46:19;;;;;;;6.40;5.80;;;;;;;;;;5009634;28;20308;-70
2023/06/11 12:48:45;;;;;;;6.32;5.72;;;;;;;;;;5025740;28;20192;-72
2023/06/11 12:51:10;;;;;;;8.32;6.13;;;;;;;;;;5026038;28;20193;-71
2023/06/11 12:53:35;;;;;;;6.53;5.90;;;;;;;;;;5026397;28;20197;-72
2023/06/11 12:56:01;;;;;;;7.15;5.95;;;;;;;;;;5028682;28;20614;-70
2023/06/11 12:58:26;;;;;;;9.13;6.55;;;;;;;;;;5025342;28;20184;-70
2023/06/11 13:00:51;;;;;;;9.02;6.15;;;;;;;;;;5027765;28;20217;-72
2023/06/11 13:03:17;;;;;;;9.75;6.45;;;;;;;;;;5017481;28;20269;-70
2023/06/11 13:05:42;;;;;;;6.88;6.03;;;;;;;;;;5023562;28;20544;-71
2023/06/11 13:08:08;;;;;;;8.48;6.07;;;;;;;;;;5033901;28;20665;-70
2023/06/11 13:10:33;;;;;;;9.77;6.07;;;;;;;;;;5014491;28;20181;-70
2023/06/11 13:12:59;;;;;;;7.88;5.70;;;;;;;;;;5019241;28;20194;-70
2023/06/11 13:15:24;;;;;;;6.97;5.82;;;;;;;;;;5010262;28;20185;-70
2023/06/11 13:17:50;;;;;;;11.18;6.70;;;;;;;;;;5026636;28;20231;-71
2023/06/11 13:20:16;;;;;;;6.75;6.15;;;;;;;;;;5026158;28;20641;-70
2023/06/11 13:22:42;;;;;;;6.90;5.75;;;;;;;;;;5026809;28;20189;-70
2023/06/11 13:25:07;;;;;;;7.05;6.28;;;;;;;;;;5006634;28;20661;-70
2023/06/11 13:27:33;;;;;;;6.05;5.32;;;;;;;;;;5039223;28;20193;-71
2023/06/11 13:30:01;;;;;;;10.63;5.90;;;;;;;;;;5032922;28;20200;-71
2023/06/11 13:32:27;;;;;;;8.45;5.85;;;;;;;;;;5022348;28;20280;-70
2023/06/11 13:34:52;;;;;;;7.03;5.60;;;;;;;;;;5039050;28;20545;-70
2023/06/11 13:37:18;;;;;;;7.55;5.95;;;;;;;;;;5025030;28;20193;-71
2023/06/11 13:39:44;;;;;;;6.97;6.30;;;;;;;;;;5039803;28;20187;-70
2023/06/11 13:42:10;;;;;;;8.70;6.00;;;;;;;;;;5028535;28;20197;-71
2023/06/11 13:44:35;;;;;;;11.15;6.32;;;;;;;;;;5028468;28;20190;-70
2023/06/11 13:47:01;;;;;;;8.65;6.30;;;;;;;;;;5023248;28;20247;-72
2023/06/11 13:49:26;;;;;;;6.50;5.90;;;;;;;;;;5028110;28;20479;-71
2023/06/11 13:51:52;;;;;;;8.15;5.90;;;;;;;;;;5024165;28;20688;-71
2023/06/11 13:54:17;;;;;;;8.05;6.22;;;;;;;;;;5024170;28;20185;-70
2023/06/11 13:56:45;;;;;;;6.18;5.63;;;;;;;;;;5023591;28;20186;-72
2023/06/11 13:59:11;;;;;;;6.40;5.80;;;;;;;;;;5028911;28;20546;-70
2023/06/11 14:01:36;;;;;;;6.70;5.88;;;;;;;;;;5029190;28;20205;-71
2023/06/11 14:04:02;;;;;;;8.48;5.95;;;;;;;;;;5037254;28;20189;-70
2023/06/11 14:06:27;;;;;;;7.28;5.50;;;;;;;;;;5026077;28;20696;-71
2023/06/11 14:08:52;;;;;;;10.80;6.05;;;;;;;;;;5030289;28;20264;-70
2023/06/11 14:11:18;;;;;;;7.20;5.90;;;;;;;;;;5027396;28;20185;-70
2023/06/11 14:13:44;;;;;;;6.70;5.97;;;;;;;;;;5022280;28;20198;-71
2023/06/11 14:16:09;;;;;;;6.50;5.70;;;;;;;;;;5026231;28;20247;-70
2023/06/11 14:18:35;;;;;;;8.77;5.78;;;;;;;;;;5027887;28;20190;-72
2023/06/11 14:21:00;;;;;;;5.75;5.25;;;;;;;;;;5023548;28;20198;-71
2023/06/11 14:23:25;;;;;;;9.25;5.78;;;;;;;;;;5023717;28;20197;-69
2023/06/11 14:25:51;;;;;;;7.05;5.70;;;;;;;;;;5039321;28;20720;-69
2023/06/11 14:28:16;;;;;;;6.72;5.35;;;;;;;;;;5029107;28;20201;-70
2023/06/11 14:30:42;;;;;;;6.95;5.72;;;;;;;;;;5041652;28;20192;-71